createdAt,value
2023-03-24T00:00:04.925Z,9.30
2023-03-24T00:02:31.702Z,10.48
2023-03-24T00:04:58.406Z,9.55
2023-03-24T00:07:25.657Z,10.00
2023-03-24T00:09:53.913Z,10.68
2023-03-24T00:12:20.586Z,9.23
2023-03-24T00:14:47.372Z,10.05
2023-03-24T00:17:14.107Z,9.98
2023-03-24T00:19:41.285Z,9.77
2023-03-24T00:22:09.411Z,9.40
2023-03-24T00:24:36.046Z,10.00
2023-03-24T00:27:02.653Z,9.93
2023-03-24T00:29:29.320Z,10.75
2023-03-24T00:31:56.249Z,10.95
2023-03-24T00:34:23.345Z,10.65
2023-03-24T00:36:51.354Z,10.77
2023-03-24T00:39:19.874Z,11.27
2023-03-24T00:41:47.914Z,11.20
2023-03-24T00:44:16.281Z,12.13
2023-03-24T00:46:42.888Z,12.10
2023-03-24T00:49:10.269Z,12.93
2023-03-24T00:51:42.602Z,11.95
2023-03-24T00:54:13.021Z,13.70
2023-03-24T00:56:41.091Z,13.55
2023-03-24T00:59:08.553Z,12.88
2023-03-24T01:01:36.227Z,13.40
2023-03-24T01:04:04.617Z,13.70
2023-03-24T01:06:31.372Z,13.73
2023-03-24T01:08:57.993Z,13.48
2023-03-24T01:11:26.484Z,14.57
2023-03-24T01:13:53.680Z,13.70
2023-03-24T01:16:20.522Z,13.52
2023-03-24T01:18:47.256Z,14.00
2023-03-24T01:21:13.860Z,14.43
2023-03-24T01:23:40.627Z,13.93
2023-03-24T01:26:08.919Z,14.27
2023-03-24T01:28:36.589Z,14.35
2023-03-24T01:31:03.194Z,15.00
2023-03-24T01:33:29.740Z,14.68
2023-03-24T01:35:56.320Z,14.73
2023-03-24T01:38:22.897Z,14.33
2023-03-24T01:40:49.557Z,14.40
2023-03-24T01:43:23.780Z,13.63
2023-03-24T01:46:15.636Z,15.52
2023-03-24T01:49:04.947Z,14.50
2023-03-24T01:51:44.508Z,14.03
2023-03-24T01:54:17.129Z,14.60
2023-03-24T01:56:50.549Z,14.80
2023-03-24T01:59:20.812Z,14.65
2023-03-24T02:01:47.397Z,13.98
2023-03-24T02:04:14.722Z,14.07
2023-03-24T02:06:45.409Z,13.00
2023-03-24T02:09:14.183Z,14.25
2023-03-24T02:11:41.799Z,14.80
2023-03-24T02:14:11.034Z,14.07
2023-03-24T02:17:05.587Z,13.07
2023-03-24T02:19:50.421Z,13.35
2023-03-24T02:22:26.005Z,13.30
2023-03-24T02:25:30.069Z,13.32
2023-03-24T02:28:02.316Z,13.20
2023-03-24T02:30:56.710Z,12.93
2023-03-24T02:33:48.131Z,12.63
2023-03-24T02:36:28.262Z,12.50
2023-03-24T02:39:36.430Z,12.15
2023-03-24T02:42:27.508Z,12.18
2023-03-24T02:45:08.949Z,11.23
2023-03-24T02:48:14.324Z,11.98
2023-03-24T02:51:04.216Z,10.98
2023-03-24T02:53:53.687Z,11.35
2023-03-24T02:56:30.390Z,10.73
2023-03-24T02:58:59.959Z,10.73
2023-03-24T03:01:32.395Z,10.50
2023-03-24T03:04:05.203Z,11.35
2023-03-24T03:06:38.197Z,10.50
2023-03-24T03:09:11.763Z,10.70
2023-03-24T03:11:41.539Z,11.60
2023-03-24T03:14:34.055Z,11.32
2023-03-24T03:17:15.602Z,11.13
2023-03-24T03:19:48.614Z,11.10
2023-03-24T03:22:23.205Z,11.10
2023-03-24T03:24:54.445Z,10.57
2023-03-24T03:27:25.781Z,10.68
2023-03-24T03:29:56.005Z,10.85
2023-03-24T03:32:27.950Z,9.77
2023-03-24T03:35:19.754Z,10.88
2023-03-24T03:37:57.563Z,11.00
2023-03-24T03:40:56.480Z,10.23
2023-03-24T03:43:25.626Z,9.48
2023-03-24T03:45:52.811Z,10.70
2023-03-24T03:48:19.732Z,10.20
2023-03-24T03:50:46.633Z,10.43
2023-03-24T03:53:19.819Z,10.00
2023-03-24T03:55:46.966Z,10.23
2023-03-24T03:58:13.887Z,9.57
2023-03-24T04:00:42.481Z,10.35
2023-03-24T04:03:46.206Z,10.13
2023-03-24T04:06:12.745Z,9.73
2023-03-24T04:09:05.704Z,10.10
2023-03-24T04:11:50.158Z,10.48
2023-03-24T04:14:25.681Z,9.95
2023-03-24T04:17:08.312Z,9.27
2023-03-24T04:19:34.879Z,9.23
2023-03-24T04:22:01.506Z,9.43
2023-03-24T04:24:48.204Z,10.10
2023-03-24T04:27:20.902Z,10.25
2023-03-24T04:30:05.894Z,9.13
2023-03-24T04:32:48.882Z,9.77
2023-03-24T04:35:42.673Z,9.20
2023-03-24T04:38:14.179Z,9.60
2023-03-24T04:40:43.354Z,10.00
2023-03-24T04:43:15.561Z,10.13
2023-03-24T04:45:44.962Z,10.35
2023-03-24T04:48:12.892Z,12.02
2023-03-24T04:50:42.116Z,12.63
2023-03-24T04:53:10.341Z,13.82
2023-03-24T04:55:59.157Z,11.57
2023-03-24T04:58:25.734Z,10.43
2023-03-24T05:00:52.452Z,9.73
2023-03-24T05:03:19.508Z,9.30
2023-03-24T05:05:49.477Z,10.30
2023-03-24T05:08:17.015Z,9.53
2023-03-24T05:10:44.310Z,9.20
2023-03-24T05:13:14.281Z,9.13
2023-03-24T05:15:41.354Z,8.93
2023-03-24T05:18:08.971Z,9.95
2023-03-24T05:20:35.895Z,9.43
2023-03-24T05:23:02.436Z,8.35
2023-03-24T05:25:29.161Z,8.40
2023-03-24T05:27:55.784Z,9.00
2023-03-24T05:30:22.676Z,9.45
2023-03-24T05:32:49.416Z,8.53
2023-03-24T05:35:16.131Z,8.45
2023-03-24T05:37:43.012Z,8.88
2023-03-24T05:40:10.444Z,9.02
2023-03-24T05:42:37.028Z,8.85
2023-03-24T05:45:04.949Z,9.20
2023-03-24T05:47:31.695Z,8.88
2023-03-24T05:49:58.272Z,8.52
2023-03-24T05:52:27.338Z,8.50
2023-03-24T05:54:55.246Z,8.98
2023-03-24T05:57:21.882Z,8.73
2023-03-24T05:59:48.466Z,9.27
2023-03-24T06:02:15.379Z,8.43
2023-03-24T06:04:42.097Z,8.90
2023-03-24T06:07:08.768Z,8.23
2023-03-24T06:09:38.307Z,8.33
2023-03-24T06:12:08.151Z,8.60
2023-03-24T06:14:35.028Z,8.35
2023-03-24T06:17:01.545Z,8.38
2023-03-24T06:19:28.530Z,9.23
2023-03-24T06:21:55.165Z,8.63
2023-03-24T06:24:21.746Z,8.48
2023-03-24T06:26:51.023Z,8.27
2023-03-24T06:29:17.906Z,7.93
2023-03-24T06:31:45.360Z,7.55
2023-03-24T06:34:12.202Z,8.03
2023-03-24T06:36:38.761Z,7.50
2023-03-24T06:39:05.504Z,7.57
2023-03-24T06:41:32.644Z,7.82
2023-03-24T06:43:59.254Z,7.68
2023-03-24T06:46:25.973Z,7.07
2023-03-24T06:48:52.638Z,7.30
2023-03-24T06:51:19.543Z,7.93
2023-03-24T06:53:46.347Z,7.55
2023-03-24T06:56:13.342Z,7.40
2023-03-24T06:58:39.970Z,6.80
2023-03-24T07:01:06.555Z,6.95
2023-03-24T07:03:35.661Z,7.43
2023-03-24T07:06:02.301Z,7.28
2023-03-24T07:08:37.953Z,6.82
2023-03-24T07:11:05.706Z,6.63
2023-03-24T07:13:32.393Z,7.00
2023-03-24T07:15:58.996Z,6.30
2023-03-24T07:18:25.542Z,6.25
2023-03-24T07:20:55.176Z,6.00
2023-03-24T07:23:21.768Z,5.93
2023-03-24T07:25:48.467Z,5.78
2023-03-24T07:28:15.097Z,6.28
2023-03-24T07:30:41.693Z,6.25
2023-03-24T07:33:09.456Z,6.13
2023-03-24T07:35:36.163Z,6.17
2023-03-24T07:38:02.862Z,6.15
2023-03-24T07:40:29.608Z,6.20
2023-03-24T07:43:00.595Z,6.13
2023-03-24T07:45:27.558Z,6.15
2023-03-24T07:47:54.578Z,6.73
2023-03-24T07:50:21.123Z,5.85
2023-03-24T07:52:49.178Z,6.35
2023-03-24T07:55:15.958Z,5.85
2023-03-24T07:57:45.460Z,6.50
2023-03-24T08:00:12.681Z,6.30
2023-03-24T08:02:39.528Z,6.65
2023-03-24T08:05:06.428Z,6.32
2023-03-24T08:07:33.124Z,6.57
2023-03-24T08:09:59.978Z,6.20
2023-03-24T08:12:29.568Z,6.17
2023-03-24T08:14:56.351Z,6.38
2023-03-24T08:17:22.882Z,5.82
2023-03-24T08:19:59.497Z,6.25
2023-03-24T08:22:27.998Z,6.30
2023-03-24T08:24:54.674Z,6.73
2023-03-24T08:27:23.111Z,6.20
2023-03-24T08:29:49.728Z,6.40
2023-03-24T08:32:16.509Z,6.32
2023-03-24T08:34:43.202Z,6.32
2023-03-24T08:37:09.730Z,6.23
2023-03-24T08:39:36.286Z,6.13
2023-03-24T08:42:03.386Z,6.15
2023-03-24T08:44:33.002Z,6.20
2023-03-24T08:47:01.245Z,6.05
2023-03-24T08:49:28.072Z,5.60
2023-03-24T08:51:54.612Z,5.60
2023-03-24T08:54:22.579Z,5.65
2023-03-24T08:56:50.112Z,5.60
2023-03-24T08:59:17.288Z,5.38
2023-03-24T09:01:44.018Z,5.53
2023-03-24T09:04:10.655Z,5.50
2023-03-24T09:06:38.178Z,5.05
2023-03-24T09:09:07.520Z,5.10
2023-03-24T09:11:35.792Z,5.18
2023-03-24T09:14:03.332Z,5.63
2023-03-24T09:16:29.990Z,5.00
2023-03-24T09:18:56.654Z,4.70
2023-03-24T09:21:23.725Z,4.75
2023-03-24T09:23:50.276Z,5.13
2023-03-24T09:26:26.288Z,4.70
2023-03-24T09:28:53.277Z,4.45
2023-03-24T09:31:30.001Z,5.13
2023-03-24T09:34:01.151Z,4.85
2023-03-24T09:36:31.213Z,5.00
2023-03-24T09:38:58.009Z,4.97
2023-03-24T09:41:34.644Z,4.63
2023-03-24T09:44:14.690Z,5.03
2023-03-24T09:47:22.625Z,4.60
2023-03-24T09:49:49.662Z,4.70
2023-03-24T09:52:21.429Z,5.23
2023-03-24T09:55:11.269Z,5.05
2023-03-24T09:57:41.004Z,5.43
2023-03-24T10:00:16.617Z,4.70
2023-03-24T10:02:43.709Z,4.97
2023-03-24T10:05:17.144Z,4.67
2023-03-24T10:07:53.621Z,4.60
2023-03-24T10:10:44.484Z,4.80
2023-03-24T10:13:38.680Z,5.22
2023-03-24T10:16:20.815Z,4.65
2023-03-24T10:19:13.772Z,4.67
2023-03-24T10:21:53.280Z,4.07
2023-03-24T10:24:31.296Z,4.68
2023-03-24T10:27:14.926Z,4.85
2023-03-24T10:29:43.301Z,4.50
2023-03-24T10:32:24.662Z,5.00
2023-03-24T10:34:57.506Z,4.40
2023-03-24T10:37:24.380Z,4.20
2023-03-24T10:39:51.875Z,4.30
2023-03-24T10:42:24.473Z,5.35
2023-03-24T10:44:52.450Z,4.60
2023-03-24T10:47:29.006Z,3.88
2023-03-24T10:50:12.003Z,4.63
2023-03-24T10:52:41.946Z,4.50
2023-03-24T10:55:16.346Z,4.63
2023-03-24T10:57:46.132Z,4.50
2023-03-24T11:00:45.225Z,4.13
2023-03-24T11:03:16.830Z,4.22
2023-03-24T11:05:44.810Z,4.00
2023-03-24T11:08:17.331Z,4.30
2023-03-24T11:10:44.266Z,3.73
2023-03-24T11:13:29.035Z,3.67
2023-03-24T11:16:07.506Z,3.83
2023-03-24T11:18:35.270Z,3.92
2023-03-24T11:21:04.519Z,3.60
2023-03-24T11:23:39.243Z,3.17
2023-03-24T11:26:09.885Z,3.83
2023-03-24T11:28:45.461Z,3.63
2023-03-24T11:31:22.093Z,3.72
2023-03-24T11:33:57.530Z,3.80
2023-03-24T11:36:30.436Z,3.50
2023-03-24T11:39:04.029Z,3.63
2023-03-24T11:41:30.682Z,4.55
2023-03-24T11:44:24.145Z,3.80
2023-03-24T11:46:55.849Z,3.33
2023-03-24T11:49:28.340Z,3.90
2023-03-24T11:51:55.939Z,3.80
2023-03-24T11:54:32.879Z,3.80
2023-03-24T11:57:04.587Z,4.25
2023-03-24T11:59:58.312Z,3.60
2023-03-24T12:02:53.085Z,3.30
2023-03-24T12:05:19.743Z,3.35
2023-03-24T12:08:07.128Z,3.33
2023-03-24T12:11:02.598Z,3.25
2023-03-24T12:13:45.206Z,3.60
2023-03-24T12:16:17.527Z,3.33
2023-03-24T12:19:04.533Z,3.90
2023-03-24T12:21:55.622Z,3.33
2023-03-24T12:24:31.540Z,3.67
2023-03-24T12:27:00.206Z,3.80
2023-03-24T12:29:36.056Z,3.73
2023-03-24T12:32:16.703Z,3.30
2023-03-24T12:35:09.865Z,4.00
2023-03-24T12:37:47.339Z,3.88
2023-03-24T12:40:38.588Z,3.05
2023-03-24T12:43:36.266Z,3.60
2023-03-24T12:46:17.594Z,3.47
2023-03-24T12:49:28.457Z,3.22
2023-03-24T12:52:18.175Z,3.10
2023-03-24T12:54:44.707Z,3.55
2023-03-24T12:57:16.518Z,4.37
2023-03-24T13:00:08.830Z,3.40
2023-03-24T13:02:46.158Z,3.15
2023-03-24T13:05:20.914Z,2.90
2023-03-24T13:07:50.321Z,2.95
2023-03-24T13:10:34.477Z,3.40
2023-03-24T13:13:13.833Z,3.00
2023-03-24T13:15:47.242Z,2.90
2023-03-24T13:18:33.010Z,3.53
2023-03-24T13:21:16.406Z,3.20
2023-03-24T13:24:00.893Z,3.80
2023-03-24T13:26:45.688Z,2.95
2023-03-24T13:29:49.035Z,3.80
2023-03-24T13:32:29.494Z,3.83
2023-03-24T13:35:20.001Z,3.13
2023-03-24T13:37:46.555Z,3.90
2023-03-24T13:40:25.289Z,3.42
2023-03-24T13:42:56.793Z,3.10
2023-03-24T13:45:31.368Z,3.05
2023-03-24T13:48:09.788Z,3.33
2023-03-24T13:51:00.483Z,3.17
2023-03-24T13:53:33.534Z,3.10
2023-03-24T13:56:01.087Z,3.28
2023-03-24T13:58:55.704Z,3.50
2023-03-24T14:01:37.616Z,3.90
2023-03-24T14:04:26.297Z,3.90
2023-03-24T14:06:57.794Z,3.30
2023-03-24T14:09:33.293Z,3.30
2023-03-24T14:12:02.544Z,3.58
2023-03-24T14:14:30.772Z,3.60
2023-03-24T14:16:57.981Z,3.60
2023-03-24T14:19:32.563Z,3.78
2023-03-24T14:22:15.408Z,3.60
2023-03-24T14:24:45.978Z,3.58
2023-03-24T14:27:31.637Z,3.90
2023-03-24T14:30:13.450Z,4.03
2023-03-24T14:32:49.791Z,2.78
2023-03-24T14:35:41.783Z,3.10
2023-03-24T14:38:14.275Z,3.08
2023-03-24T14:40:46.769Z,3.45
2023-03-24T14:43:26.786Z,3.30
2023-03-24T14:45:55.094Z,3.35
2023-03-24T14:48:35.692Z,3.28
2023-03-24T14:51:11.570Z,3.40
2023-03-24T14:53:39.285Z,2.92
2023-03-24T14:56:15.316Z,3.30
2023-03-24T14:58:44.112Z,3.00
2023-03-24T15:01:14.487Z,3.00
2023-03-24T15:04:01.502Z,3.20
2023-03-24T15:06:28.248Z,3.50
2023-03-24T15:08:57.158Z,4.47
2023-03-24T15:11:27.348Z,3.13
2023-03-24T15:13:55.679Z,3.78
2023-03-24T15:16:25.503Z,3.10
2023-03-24T15:19:01.876Z,3.17
2023-03-24T15:21:40.367Z,3.30
2023-03-24T15:24:21.791Z,3.08
2023-03-24T15:26:53.158Z,3.22
2023-03-24T15:29:20.193Z,3.35
2023-03-24T15:31:47.450Z,3.20
2023-03-24T15:34:33.478Z,4.50
2023-03-24T15:37:04.002Z,3.67
2023-03-24T15:39:38.790Z,3.53
2023-03-24T15:42:14.530Z,3.28
2023-03-24T15:44:41.834Z,3.10
2023-03-24T15:47:19.741Z,3.10
2023-03-24T15:49:58.211Z,2.88
2023-03-24T15:52:33.637Z,3.35
2023-03-24T15:55:19.302Z,3.55
2023-03-24T15:57:47.823Z,4.32
2023-03-24T16:00:18.186Z,3.80
2023-03-24T16:02:50.565Z,4.10
2023-03-24T16:05:31.614Z,3.60
2023-03-24T16:08:04.268Z,3.70
2023-03-24T16:10:40.385Z,3.30
2023-03-24T16:13:13.396Z,3.80
2023-03-24T16:15:58.945Z,3.35
2023-03-24T16:18:36.958Z,4.50
2023-03-24T16:21:28.376Z,4.70
2023-03-24T16:23:57.813Z,3.50
2023-03-24T16:26:29.857Z,3.77
2023-03-24T16:29:20.460Z,3.65
2023-03-24T16:31:49.373Z,3.25
2023-03-24T16:34:17.258Z,3.40
2023-03-24T16:36:43.946Z,3.90
2023-03-24T16:39:16.285Z,3.90
2023-03-24T16:41:42.990Z,3.70
2023-03-24T16:44:10.246Z,3.88
2023-03-24T16:46:37.971Z,3.72
2023-03-24T16:49:07.137Z,5.07
2023-03-24T16:51:34.253Z,5.43
2023-03-24T16:54:00.829Z,4.25
2023-03-24T16:56:27.466Z,4.30
2023-03-24T16:58:54.175Z,3.97
2023-03-24T17:01:32.943Z,4.22
2023-03-24T17:04:01.826Z,3.70
2023-03-24T17:06:30.380Z,4.00
2023-03-24T17:08:57.771Z,4.15
2023-03-24T17:11:30.210Z,4.22
2023-03-24T17:13:57.801Z,5.10
2023-03-24T17:16:24.385Z,5.47
2023-03-24T17:18:51.205Z,5.60
2023-03-24T17:21:19.090Z,6.05
2023-03-24T17:23:47.355Z,4.95
2023-03-24T17:26:13.926Z,5.22
2023-03-24T17:28:40.600Z,5.27
2023-03-24T17:31:07.418Z,5.90
2023-03-24T17:33:34.416Z,6.72
2023-03-24T17:36:01.018Z,6.32
2023-03-24T17:38:27.640Z,5.82
2023-03-24T17:41:01.265Z,6.73
2023-03-24T17:43:27.974Z,6.00
2023-03-24T17:45:59.028Z,6.47
2023-03-24T17:48:26.285Z,5.60
2023-03-24T17:50:53.522Z,5.75
2023-03-24T17:53:20.425Z,6.00
2023-03-24T17:55:47.036Z,6.20
2023-03-24T17:58:13.609Z,6.07
2023-03-24T18:00:40.300Z,5.78
2023-03-24T18:03:06.832Z,5.55
2023-03-24T18:05:33.391Z,5.23
2023-03-24T18:07:59.943Z,5.30
2023-03-24T18:10:26.517Z,9.90
2023-03-24T18:12:54.484Z,8.82
2023-03-24T18:15:21.189Z,9.02
2023-03-24T18:17:47.707Z,6.80
2023-03-24T18:20:14.486Z,5.47
2023-03-24T18:22:43.904Z,5.63
2023-03-24T18:25:11.744Z,5.20
2023-03-24T18:27:38.350Z,5.13
2023-03-24T18:30:06.188Z,4.47
2023-03-24T18:32:32.866Z,5.25
2023-03-24T18:34:59.993Z,4.88
2023-03-24T18:37:27.891Z,5.00
2023-03-24T18:39:54.529Z,4.95
2023-03-24T18:42:21.143Z,5.10
2023-03-24T18:44:48.140Z,4.80
2023-03-24T18:47:14.795Z,5.00
2023-03-24T18:49:41.648Z,4.80
2023-03-24T18:52:09.617Z,5.35
2023-03-24T18:54:36.477Z,5.23
2023-03-24T18:57:03.148Z,5.10
2023-03-24T18:59:30.022Z,5.35
2023-03-24T19:01:56.799Z,5.15
2023-03-24T19:04:23.345Z,5.45
2023-03-24T19:06:49.884Z,5.63
2023-03-24T19:09:16.654Z,6.25
2023-03-24T19:11:43.518Z,5.70
2023-03-24T19:14:10.351Z,5.55
2023-03-24T19:16:36.981Z,5.75
2023-03-24T19:19:04.232Z,6.73
2023-03-24T19:21:30.985Z,8.32
2023-03-24T19:23:57.516Z,7.15
2023-03-24T19:26:24.099Z,7.43
2023-03-24T19:28:50.928Z,7.68
2023-03-24T19:31:19.234Z,6.50
2023-03-24T19:33:47.071Z,6.60
2023-03-24T19:36:14.248Z,6.38
2023-03-24T19:38:40.862Z,5.53
2023-03-24T19:41:11.451Z,6.30
2023-03-24T19:43:38.148Z,6.30
2023-03-24T19:46:05.949Z,6.30
2023-03-24T19:48:33.571Z,6.20
2023-03-24T19:51:00.159Z,5.35
2023-03-24T19:53:26.833Z,5.82
2023-03-24T19:55:56.614Z,5.90
2023-03-24T19:58:23.307Z,5.82
2023-03-24T20:00:51.165Z,6.18
2023-03-24T20:03:18.020Z,6.10
2023-03-24T20:05:44.726Z,6.10
2023-03-24T20:08:14.178Z,6.37
2023-03-24T20:10:40.916Z,6.78
2023-03-24T20:13:08.583Z,5.53
2023-03-24T20:15:35.539Z,5.75
2023-03-24T20:18:02.351Z,6.25
2023-03-24T20:20:29.025Z,6.30
2023-03-24T20:22:55.628Z,6.75
2023-03-24T20:25:22.185Z,6.30
2023-03-24T20:27:48.854Z,6.20
2023-03-24T20:30:20.291Z,6.55
2023-03-24T20:32:47.204Z,6.63
2023-03-24T20:35:14.310Z,6.80
2023-03-24T20:37:40.889Z,6.25
2023-03-24T20:40:08.476Z,5.68
2023-03-24T20:42:35.256Z,5.35
2023-03-24T20:45:01.771Z,4.83
2023-03-24T20:47:28.345Z,5.05
2023-03-24T20:49:55.034Z,4.88
2023-03-24T20:52:21.686Z,5.53
2023-03-24T20:54:48.281Z,4.70
2023-03-24T20:57:14.947Z,5.00
2023-03-24T20:59:41.681Z,4.47
2023-03-24T21:02:10.721Z,4.55
2023-03-24T21:04:37.401Z,5.13
2023-03-24T21:07:03.960Z,4.88
2023-03-24T21:09:30.560Z,5.13
2023-03-24T21:11:57.127Z,4.65
2023-03-24T21:14:23.673Z,4.72
2023-03-24T21:16:50.506Z,4.97
2023-03-24T21:19:17.581Z,4.43
2023-03-24T21:21:44.155Z,4.30
2023-03-24T21:24:11.016Z,4.78
2023-03-24T21:26:37.518Z,4.60
2023-03-24T21:29:04.110Z,4.68
2023-03-24T21:31:30.782Z,5.20
2023-03-24T21:33:57.695Z,5.07
2023-03-24T21:36:26.340Z,5.28
2023-03-24T21:38:52.961Z,6.35
2023-03-24T21:41:21.006Z,5.60
2023-03-24T21:43:47.880Z,5.43
2023-03-24T21:46:14.497Z,5.27
2023-03-24T21:48:41.382Z,5.10
2023-03-24T21:51:07.948Z,5.45
2023-03-24T21:53:34.551Z,5.00
2023-03-24T21:56:01.116Z,4.93
2023-03-24T21:58:27.961Z,5.27
2023-03-24T22:00:54.988Z,5.07
2023-03-24T22:03:21.713Z,4.93
2023-03-24T22:05:48.765Z,5.30
2023-03-24T22:08:15.626Z,5.53
2023-03-24T22:10:42.168Z,5.30
2023-03-24T22:13:09.505Z,5.55
2023-03-24T22:15:36.846Z,5.03
2023-03-24T22:18:03.750Z,5.38
2023-03-24T22:20:30.496Z,5.05
2023-03-24T22:22:57.209Z,5.03
2023-03-24T22:25:24.083Z,5.07
2023-03-24T22:27:52.602Z,4.80
2023-03-24T22:30:19.561Z,4.80
2023-03-24T22:32:46.097Z,5.20
2023-03-24T22:35:12.892Z,5.07
2023-03-24T22:37:41.616Z,5.10
2023-03-24T22:40:08.989Z,4.90
2023-03-24T22:42:35.774Z,5.43
2023-03-24T22:45:02.440Z,5.70
2023-03-24T22:47:29.170Z,5.20
2023-03-24T22:49:55.765Z,5.47
2023-03-24T22:52:22.295Z,6.07
2023-03-24T22:54:48.828Z,5.55
2023-03-24T22:57:15.465Z,5.60
2023-03-24T22:59:41.990Z,5.87
2023-03-24T23:02:10.267Z,6.30
2023-03-24T23:04:38.048Z,6.10
2023-03-24T23:07:04.586Z,6.20
2023-03-24T23:09:31.387Z,6.20
2023-03-24T23:11:57.929Z,6.13
2023-03-24T23:14:24.563Z,6.15
2023-03-24T23:16:51.571Z,5.90
2023-03-24T23:19:18.165Z,6.05
2023-03-24T23:21:44.780Z,5.55
2023-03-24T23:24:11.303Z,6.23
2023-03-24T23:26:38.019Z,5.90
2023-03-24T23:29:04.673Z,5.88
2023-03-24T23:31:31.212Z,6.10
2023-03-24T23:33:58.597Z,6.43
2023-03-24T23:36:25.364Z,6.93
2023-03-24T23:38:52.676Z,5.95
2023-03-24T23:41:22.527Z,6.30
2023-03-24T23:43:50.529Z,6.10
2023-03-24T23:46:18.291Z,6.63
2023-03-24T23:48:45.417Z,7.40
2023-03-24T23:51:12.336Z,7.53
2023-03-24T23:53:38.961Z,7.88
2023-03-24T23:56:07.541Z,7.90
2023-03-24T23:58:37.382Z,7.65
